createdAt,value
2017-08-02T00:00:43.395Z,6.00
2017-08-02T00:03:10.805Z,6.63
2017-08-02T00:05:38.236Z,6.40
2017-08-02T00:08:05.668Z,7.03
2017-08-02T00:10:33.859Z,6.00
2017-08-02T00:13:01.297Z,6.53
2017-08-02T00:15:28.720Z,5.50
2017-08-02T00:17:56.135Z,5.53
2017-08-02T00:20:23.571Z,5.30
2017-08-02T00:22:51.763Z,5.90
2017-08-02T00:25:19.236Z,5.70
2017-08-02T00:27:46.667Z,6.73
2017-08-02T00:30:14.115Z,6.63
2017-08-02T00:32:41.606Z,7.13
2017-08-02T00:35:09.043Z,7.30
2017-08-02T00:37:36.460Z,5.87
2017-08-02T00:40:03.888Z,6.40
2017-08-02T00:42:31.307Z,5.90
2017-08-02T00:44:58.724Z,6.40
2017-08-02T00:47:26.147Z,6.30
2017-08-02T00:49:53.579Z,6.47
2017-08-02T00:52:21.011Z,6.03
2017-08-02T00:54:48.611Z,5.60
2017-08-02T00:57:16.043Z,6.30
2017-08-02T00:59:43.452Z,7.90
2017-08-02T01:02:10.880Z,6.70
2017-08-02T01:04:38.314Z,7.10
2017-08-02T01:07:05.771Z,8.10
2017-08-02T01:09:33.448Z,6.50
2017-08-02T01:12:00.868Z,6.57
2017-08-02T01:14:28.291Z,6.10
2017-08-02T01:16:55.818Z,5.80
2017-08-02T01:19:23.264Z,6.37
2017-08-02T01:21:50.673Z,6.27
2017-08-02T01:24:18.920Z,6.10
2017-08-02T01:26:46.341Z,6.20
2017-08-02T01:29:13.768Z,5.90
2017-08-02T01:31:41.195Z,6.20
2017-08-02T01:34:08.639Z,6.07
2017-08-02T01:36:36.059Z,6.03
2017-08-02T01:39:03.509Z,5.40
2017-08-02T01:41:30.923Z,6.30
2017-08-02T01:43:58.352Z,6.30
2017-08-02T01:46:25.779Z,6.80
2017-08-02T01:48:53.194Z,5.70
2017-08-02T01:51:20.623Z,5.87
2017-08-02T01:53:48.048Z,6.50
2017-08-02T01:56:15.471Z,7.07
2017-08-02T01:58:42.896Z,6.57
2017-08-02T02:01:10.328Z,7.50
2017-08-02T02:03:37.740Z,6.50
2017-08-02T02:06:05.168Z,5.63
2017-08-02T02:08:32.587Z,6.30
2017-08-02T02:11:00.011Z,6.47
2017-08-02T02:13:28.199Z,7.37
2017-08-02T02:15:55.620Z,7.93
2017-08-02T02:18:23.040Z,7.60
2017-08-02T02:20:50.467Z,6.87
2017-08-02T02:23:17.879Z,7.27
2017-08-02T02:25:45.336Z,6.73
2017-08-02T02:28:12.747Z,7.77
2017-08-02T02:30:40.172Z,7.40
2017-08-02T02:33:07.835Z,6.43
2017-08-02T02:35:35.338Z,7.50
2017-08-02T02:38:02.780Z,7.07
2017-08-02T02:40:30.187Z,7.00
2017-08-02T02:42:57.616Z,8.80
2017-08-02T02:45:25.044Z,8.60
2017-08-02T02:47:52.467Z,7.30
2017-08-02T02:50:20.655Z,7.70
2017-08-02T02:52:48.086Z,8.63
2017-08-02T02:55:15.499Z,9.03
2017-08-02T02:57:42.923Z,7.73
2017-08-02T03:00:10.343Z,7.20
2017-08-02T03:02:37.760Z,7.70
2017-08-02T03:05:05.195Z,8.23
2017-08-02T03:07:32.632Z,7.93
2017-08-02T03:10:00.051Z,7.67
2017-08-02T03:12:27.462Z,8.63
2017-08-02T03:14:54.904Z,7.27
2017-08-02T03:17:22.328Z,7.57
2017-08-02T03:19:49.764Z,6.77
2017-08-02T03:22:17.176Z,8.03
2017-08-02T03:24:45.362Z,8.10
2017-08-02T03:27:12.801Z,7.50
2017-08-02T03:29:40.239Z,8.27
2017-08-02T03:32:07.660Z,7.87
2017-08-02T03:34:35.072Z,6.63
2017-08-02T03:37:02.507Z,7.57
2017-08-02T03:39:30.711Z,8.33
2017-08-02T03:41:58.159Z,7.40
2017-08-02T03:44:25.572Z,7.37
2017-08-02T03:46:52.995Z,7.13
2017-08-02T03:49:20.414Z,7.67
2017-08-02T03:51:48.628Z,7.50
2017-08-02T03:54:16.043Z,7.13
2017-08-02T03:56:43.473Z,7.70
2017-08-02T03:59:10.894Z,7.53
2017-08-02T04:01:38.335Z,7.60
2017-08-02T04:04:05.751Z,7.23
2017-08-02T04:06:33.247Z,6.80
2017-08-02T04:09:00.671Z,7.20
2017-08-02T04:11:28.851Z,6.83
2017-08-02T04:13:56.283Z,5.80
2017-08-02T04:16:23.699Z,6.33
2017-08-02T04:18:51.132Z,6.40
2017-08-02T04:21:18.556Z,6.03
2017-08-02T04:23:45.983Z,6.13
2017-08-02T04:26:13.527Z,6.43
2017-08-02T04:28:41.010Z,5.93
2017-08-02T04:31:08.423Z,5.37
2017-08-02T04:33:35.877Z,5.90
2017-08-02T04:36:03.463Z,6.07
2017-08-02T04:38:30.999Z,6.63
2017-08-02T04:40:58.400Z,6.57
2017-08-02T04:43:25.814Z,6.70
2017-08-02T04:45:53.291Z,7.00
2017-08-02T04:48:20.711Z,6.63
2017-08-02T04:50:48.143Z,6.93
2017-08-02T04:53:15.563Z,6.37
2017-08-02T04:55:43.036Z,5.00
2017-08-02T04:58:10.471Z,6.10
2017-08-02T05:00:37.900Z,5.00
2017-08-02T05:03:05.315Z,5.97
2017-08-02T05:05:32.743Z,5.33
2017-08-02T05:08:00.195Z,6.20
2017-08-02T05:10:27.631Z,6.50
2017-08-02T05:12:55.060Z,5.90
2017-08-02T05:15:22.471Z,4.93
2017-08-02T05:17:49.899Z,6.30
2017-08-02T05:20:17.316Z,5.60
2017-08-02T05:22:44.751Z,5.20
2017-08-02T05:25:12.177Z,5.20
2017-08-02T05:27:39.599Z,5.13
2017-08-02T05:30:07.011Z,5.57
2017-08-02T05:32:34.439Z,5.30
2017-08-02T05:35:01.860Z,5.40
2017-08-02T05:37:29.551Z,5.23
2017-08-02T05:39:56.978Z,5.43
2017-08-02T05:42:24.416Z,5.10
2017-08-02T05:44:51.834Z,5.53
2017-08-02T05:47:19.379Z,5.90
2017-08-02T05:49:46.796Z,5.80
2017-08-02T05:52:14.290Z,6.47
2017-08-02T05:54:41.712Z,6.60
2017-08-02T05:57:09.155Z,6.17
2017-08-02T05:59:36.575Z,6.53
2017-08-02T06:02:04.018Z,6.40
2017-08-02T06:04:31.439Z,5.73
2017-08-02T06:06:58.871Z,6.23
2017-08-02T06:09:26.291Z,4.90
2017-08-02T06:11:53.712Z,5.60
2017-08-02T06:14:21.407Z,5.43
2017-08-02T06:16:48.815Z,6.10
2017-08-02T06:19:16.243Z,6.33
2017-08-02T06:21:43.656Z,5.80
2017-08-02T06:24:11.099Z,6.20
2017-08-02T06:26:38.519Z,6.10
2017-08-02T06:29:05.942Z,6.20
2017-08-02T06:31:33.375Z,5.43
2017-08-02T06:34:00.812Z,6.30
2017-08-02T06:36:28.311Z,6.87
2017-08-02T06:38:55.731Z,5.60
2017-08-02T06:41:23.178Z,5.40
2017-08-02T06:43:50.591Z,6.17
2017-08-02T06:46:18.017Z,9.63
2017-08-02T06:48:45.435Z,11.27
2017-08-02T06:51:12.859Z,8.80
2017-08-02T06:53:40.296Z,10.00
2017-08-02T06:56:07.735Z,9.27
2017-08-02T06:58:35.186Z,8.40
2017-08-02T07:01:02.599Z,8.97
2017-08-02T07:03:30.016Z,9.57
2017-08-02T07:05:57.452Z,9.90
2017-08-02T07:08:24.872Z,9.43
2017-08-02T07:10:52.291Z,7.50
2017-08-02T07:13:19.724Z,7.03
2017-08-02T07:15:47.180Z,8.90
2017-08-02T07:18:14.599Z,6.93
2017-08-02T07:20:42.015Z,7.30
2017-08-02T07:23:09.452Z,6.83
2017-08-02T07:25:37.020Z,7.33
2017-08-02T07:28:04.448Z,6.90
2017-08-02T07:30:31.867Z,7.30
2017-08-02T07:35:26.255Z,7.10
2017-08-02T07:37:53.695Z,7.47
2017-08-02T07:40:21.111Z,7.33
2017-08-02T07:42:48.541Z,7.87
2017-08-02T07:45:15.960Z,7.40
2017-08-02T07:47:44.004Z,8.07
2017-08-02T07:50:11.411Z,7.63
2017-08-02T07:52:39.039Z,7.70
2017-08-02T07:55:06.447Z,7.20
2017-08-02T07:57:33.879Z,7.77
2017-08-02T08:00:01.309Z,8.33
2017-08-02T08:02:28.731Z,6.73
2017-08-02T08:04:56.155Z,9.33
2017-08-02T08:07:24.347Z,8.17
2017-08-02T08:09:51.767Z,8.67
2017-08-02T08:12:19.185Z,8.67
2017-08-02T08:14:46.611Z,9.30
2017-08-02T08:17:14.035Z,10.60
2017-08-02T08:19:41.481Z,8.13
2017-08-02T08:22:08.890Z,7.90
2017-08-02T08:24:36.489Z,9.00
2017-08-02T08:27:03.902Z,7.40
2017-08-02T08:29:31.335Z,7.80
2017-08-02T08:31:59.520Z,8.10
2017-08-02T08:34:26.959Z,6.70
2017-08-02T08:36:54.375Z,6.47
2017-08-02T08:39:21.807Z,7.23
2017-08-02T08:41:49.219Z,6.27
2017-08-02T08:44:16.652Z,6.80
2017-08-02T08:46:44.078Z,6.30
2017-08-02T08:49:11.512Z,7.70
2017-08-02T08:51:38.942Z,7.50
2017-08-02T08:54:06.354Z,6.53
2017-08-02T08:56:33.788Z,7.13
2017-08-02T08:59:01.219Z,7.37
2017-08-02T09:01:28.742Z,6.60
2017-08-02T09:03:56.171Z,6.00
2017-08-02T09:06:23.620Z,5.97
2017-08-02T09:08:51.047Z,5.83
2017-08-02T09:11:18.488Z,7.00
2017-08-02T09:13:45.907Z,5.97
2017-08-02T09:16:13.327Z,6.53
2017-08-02T09:18:40.944Z,5.57
2017-08-02T09:21:08.360Z,5.90
2017-08-02T09:23:35.802Z,5.60
2017-08-02T09:26:03.252Z,6.23
2017-08-02T09:28:30.712Z,6.03
2017-08-02T09:30:58.184Z,6.37
2017-08-02T09:33:25.632Z,5.50
2017-08-02T09:35:53.052Z,5.40
2017-08-02T09:38:20.492Z,4.97
2017-08-02T09:40:47.911Z,4.80
2017-08-02T09:43:15.449Z,5.40
2017-08-02T09:45:42.851Z,5.07
2017-08-02T09:48:10.292Z,5.80
2017-08-02T09:50:37.719Z,5.40
2017-08-02T09:53:05.176Z,4.90
2017-08-02T09:55:32.591Z,4.50
2017-08-02T09:58:00.015Z,5.27
2017-08-02T10:00:27.455Z,5.50
2017-08-02T10:02:54.905Z,5.80
2017-08-02T10:05:22.323Z,4.83
2017-08-02T10:07:49.744Z,5.33
2017-08-02T10:10:17.175Z,4.23
2017-08-02T10:12:44.587Z,5.17
2017-08-02T10:15:12.018Z,4.93
2017-08-02T10:17:39.559Z,4.70
2017-08-02T10:20:06.994Z,3.97
2017-08-02T10:22:34.411Z,4.60
2017-08-02T10:25:01.832Z,4.97
2017-08-02T10:27:29.252Z,4.10
2017-08-02T10:29:56.680Z,4.70
2017-08-02T10:32:24.104Z,5.37
2017-08-02T10:34:51.549Z,5.07
2017-08-02T10:37:18.959Z,5.27
2017-08-02T10:39:46.584Z,4.90
2017-08-02T10:42:14.228Z,5.20
2017-08-02T10:44:41.663Z,5.63
2017-08-02T10:47:09.351Z,4.87
2017-08-02T10:49:36.772Z,4.63
2017-08-02T10:52:04.196Z,4.60
2017-08-02T10:54:32.388Z,5.00
2017-08-02T10:56:59.812Z,4.60
2017-08-02T10:59:27.248Z,4.27
2017-08-02T11:01:54.679Z,4.00
2017-08-02T11:04:22.101Z,4.30
2017-08-02T11:06:49.532Z,5.40
2017-08-02T11:09:16.973Z,4.67
2017-08-02T11:11:44.379Z,4.47
2017-08-02T11:14:11.799Z,4.63
2017-08-02T11:16:39.231Z,4.97
2017-08-02T11:19:06.649Z,4.70
2017-08-02T11:21:34.072Z,5.00
2017-08-02T11:24:01.492Z,4.30
2017-08-02T11:26:28.951Z,4.40
2017-08-02T11:28:56.355Z,4.60
2017-08-02T11:31:23.784Z,4.50
2017-08-02T11:33:51.316Z,4.40
2017-08-02T11:36:18.727Z,4.07
2017-08-02T11:38:46.163Z,4.00
2017-08-02T11:41:13.587Z,5.00
2017-08-02T11:43:41.012Z,4.67
2017-08-02T11:46:08.456Z,4.20
2017-08-02T11:48:35.867Z,4.50
2017-08-02T11:51:03.279Z,4.83
2017-08-02T11:53:30.738Z,4.80
2017-08-02T11:55:58.164Z,4.27
2017-08-02T11:58:25.592Z,4.33
2017-08-02T12:00:53.003Z,4.67
2017-08-02T12:03:20.438Z,4.17
2017-08-02T12:05:47.864Z,4.90
2017-08-02T12:08:15.296Z,4.70
2017-08-02T12:10:42.728Z,4.30
2017-08-02T12:13:10.157Z,4.73
2017-08-02T12:15:38.344Z,5.10
2017-08-02T12:18:05.767Z,4.90
2017-08-02T12:20:33.192Z,3.63
2017-08-02T12:23:00.652Z,3.80
2017-08-02T12:25:28.087Z,4.10
2017-08-02T12:27:55.517Z,4.27
2017-08-02T12:30:23.703Z,4.00
2017-08-02T12:32:51.123Z,4.10
2017-08-02T12:35:18.539Z,4.20
2017-08-02T12:37:45.990Z,4.23
2017-08-02T12:40:13.406Z,4.30
2017-08-02T12:42:41.595Z,3.63
2017-08-02T12:45:09.008Z,3.53
2017-08-02T12:47:36.443Z,3.00
2017-08-02T12:50:03.876Z,3.93
2017-08-02T12:52:31.295Z,4.60
2017-08-02T12:54:59.472Z,4.67
2017-08-02T12:57:26.975Z,4.27
2017-08-02T12:59:54.387Z,4.30
2017-08-02T13:02:21.811Z,3.70
2017-08-02T13:04:49.247Z,4.40
2017-08-02T13:07:16.682Z,3.40
2017-08-02T13:09:44.086Z,3.03
2017-08-02T13:12:11.517Z,2.83
2017-08-02T13:14:38.923Z,3.17
2017-08-02T13:17:06.356Z,3.00
2017-08-02T13:19:33.784Z,3.20
2017-08-02T13:22:01.224Z,3.07
2017-08-02T13:24:28.686Z,2.80
2017-08-02T13:26:56.107Z,3.17
2017-08-02T13:29:23.531Z,2.87
2017-08-02T13:31:50.960Z,2.70
2017-08-02T13:34:18.514Z,3.20
2017-08-02T13:36:45.936Z,3.50
2017-08-02T13:39:13.372Z,2.80
2017-08-02T13:41:40.790Z,3.40
2017-08-02T13:44:08.212Z,2.63
2017-08-02T13:46:35.620Z,3.20
2017-08-02T13:49:03.056Z,3.00
2017-08-02T13:51:30.462Z,3.00
2017-08-02T13:53:57.888Z,3.30
2017-08-02T13:56:25.323Z,3.23
2017-08-02T13:58:52.731Z,3.17
2017-08-02T14:01:20.157Z,2.80
2017-08-02T14:03:47.618Z,3.27
2017-08-02T14:06:15.024Z,2.73
2017-08-02T14:08:42.436Z,3.43
2017-08-02T14:11:10.615Z,2.90
2017-08-02T14:13:38.072Z,2.80
2017-08-02T14:16:05.501Z,3.00
2017-08-02T14:18:32.920Z,2.97
2017-08-02T14:21:00.340Z,3.10
2017-08-02T14:23:28.514Z,3.40
2017-08-02T14:25:55.944Z,3.03
2017-08-02T14:28:23.372Z,3.60
2017-08-02T14:30:50.801Z,3.10
2017-08-02T14:33:18.210Z,3.27
2017-08-02T14:35:45.643Z,3.87
2017-08-02T14:38:13.072Z,3.00
2017-08-02T14:40:40.494Z,3.27
2017-08-02T14:43:07.911Z,3.03
2017-08-02T14:45:35.520Z,3.50
2017-08-02T14:48:03.775Z,3.50
2017-08-02T14:50:31.204Z,3.10
2017-08-02T14:52:58.621Z,3.50
2017-08-02T14:55:26.063Z,3.50
2017-08-02T14:57:53.479Z,3.33
2017-08-02T15:00:22.039Z,3.50
2017-08-02T15:02:49.479Z,2.60
2017-08-02T15:05:16.912Z,3.00
2017-08-02T15:07:44.337Z,3.30
2017-08-02T15:10:11.739Z,3.43
2017-08-02T15:12:39.171Z,3.63
2017-08-02T15:15:06.583Z,3.40
2017-08-02T15:17:34.008Z,3.40
2017-08-02T15:20:01.452Z,3.90
2017-08-02T15:22:28.893Z,3.90
2017-08-02T15:24:57.083Z,3.67
2017-08-02T15:27:24.499Z,3.40
2017-08-02T15:29:51.919Z,3.33
2017-08-02T15:32:19.347Z,3.47
2017-08-02T15:34:46.775Z,3.40
2017-08-02T15:37:14.187Z,3.60
2017-08-02T15:39:41.624Z,2.77
2017-08-02T15:42:09.069Z,3.40
2017-08-02T15:44:36.496Z,3.07
2017-08-02T15:47:03.912Z,3.00
2017-08-02T15:49:31.343Z,3.67
2017-08-02T15:51:58.751Z,4.27
2017-08-02T15:54:26.175Z,4.47
2017-08-02T15:56:53.639Z,3.63
2017-08-02T15:59:21.052Z,3.60
2017-08-02T16:01:48.535Z,3.63
2017-08-02T16:04:15.960Z,3.10
2017-08-02T16:06:44.164Z,3.57
2017-08-02T16:09:11.583Z,3.50
2017-08-02T16:11:39.007Z,3.17
2017-08-02T16:14:07.421Z,3.40
2017-08-02T16:16:34.835Z,3.40
2017-08-02T16:19:02.265Z,3.40
2017-08-02T16:21:30.196Z,3.47
2017-08-02T16:23:57.694Z,3.47
2017-08-02T16:26:25.375Z,3.77
2017-08-02T16:28:53.890Z,3.80
2017-08-02T16:31:22.432Z,3.27
2017-08-02T16:33:49.851Z,4.30
2017-08-02T16:36:17.264Z,4.40
2017-08-02T16:38:44.695Z,3.10
2017-08-02T16:41:12.116Z,3.07
2017-08-02T16:43:39.656Z,3.70
2017-08-02T16:46:07.111Z,3.60
2017-08-02T16:48:34.815Z,3.20
2017-08-02T16:51:02.216Z,3.80
2017-08-02T16:53:29.747Z,4.33
2017-08-02T16:55:57.221Z,3.90
2017-08-02T16:58:25.052Z,4.47
2017-08-02T17:00:52.938Z,3.83
2017-08-02T17:03:20.449Z,3.93
2017-08-02T17:05:47.968Z,3.80
2017-08-02T17:08:15.380Z,3.60
2017-08-02T17:10:43.284Z,3.83
2017-08-02T17:13:10.691Z,4.10
2017-08-02T17:15:38.332Z,3.83
2017-08-02T17:18:05.768Z,3.47
2017-08-02T17:20:33.183Z,3.63
2017-08-02T17:23:00.712Z,3.70
2017-08-02T17:25:28.267Z,3.47
2017-08-02T17:27:55.685Z,3.23
2017-08-02T17:30:23.100Z,3.80
2017-08-02T17:32:50.519Z,4.70
2017-08-02T17:35:18.729Z,3.70
2017-08-02T17:37:46.236Z,3.97
2017-08-02T17:40:13.636Z,3.43
2017-08-02T17:42:41.130Z,3.67
2017-08-02T17:45:08.564Z,3.13
2017-08-02T17:47:36.015Z,3.40
2017-08-02T17:50:03.628Z,3.30
2017-08-02T17:52:31.393Z,4.07
2017-08-02T17:54:58.930Z,3.70
2017-08-02T17:57:26.488Z,3.83
2017-08-02T17:59:53.902Z,3.80
2017-08-02T18:02:21.500Z,3.50
2017-08-02T18:04:49.175Z,4.20
2017-08-02T18:07:17.201Z,4.00
2017-08-02T18:09:46.018Z,4.07
2017-08-02T18:12:13.427Z,3.97
2017-08-02T18:14:40.877Z,3.77
2017-08-02T18:17:08.486Z,4.43
2017-08-02T18:19:36.902Z,3.73
2017-08-02T18:22:04.323Z,4.33
2017-08-02T18:24:31.792Z,3.67
2017-08-02T18:26:59.204Z,3.93
2017-08-02T18:29:26.639Z,3.90
2017-08-02T18:31:54.047Z,3.60
2017-08-02T18:34:21.465Z,3.80
2017-08-02T18:36:48.901Z,4.03
2017-08-02T18:39:16.358Z,5.20
2017-08-02T18:41:43.773Z,4.67
2017-08-02T18:44:11.195Z,6.20
2017-08-02T18:46:38.629Z,6.93
2017-08-02T18:49:06.039Z,5.90
2017-08-02T18:51:34.427Z,6.60
2017-08-02T18:54:01.852Z,6.60
2017-08-02T18:56:29.286Z,6.13
2017-08-02T18:58:56.709Z,6.30
2017-08-02T19:01:24.903Z,6.50
2017-08-02T19:03:52.321Z,7.27
2017-08-02T19:06:19.755Z,7.00
2017-08-02T19:11:21.793Z,7.20
2017-08-02T19:13:49.212Z,7.50
2017-08-02T19:16:16.635Z,7.10
2017-08-02T19:18:44.079Z,7.43
2017-08-02T19:21:11.482Z,7.60
2017-08-02T19:23:39.688Z,7.93
2017-08-02T19:26:07.115Z,8.30
2017-08-02T19:28:34.536Z,8.80
2017-08-02T19:31:01.955Z,7.93
2017-08-02T19:33:29.496Z,7.67
2017-08-02T19:35:56.990Z,7.53
2017-08-02T19:38:24.442Z,7.70
2017-08-02T19:40:51.855Z,8.70
2017-08-02T19:43:19.283Z,7.33
2017-08-02T19:45:46.712Z,7.80
2017-08-02T19:48:14.134Z,8.33
2017-08-02T19:50:41.552Z,7.90
2017-08-02T19:53:09.005Z,7.60
2017-08-02T19:55:36.436Z,8.10
2017-08-02T19:58:03.858Z,8.80
2017-08-02T20:00:31.287Z,9.50
2017-08-02T20:02:58.712Z,8.13
2017-08-02T20:05:26.143Z,8.37
2017-08-02T20:07:53.559Z,8.40
2017-08-02T20:10:21.003Z,10.43
2017-08-02T20:12:48.423Z,9.10
2017-08-02T20:15:15.856Z,8.07
2017-08-02T20:17:43.268Z,8.07
2017-08-02T20:20:10.695Z,7.53
2017-08-02T20:22:38.128Z,7.30
2017-08-02T20:25:05.572Z,7.50
2017-08-02T20:27:32.991Z,8.40
2017-08-02T20:30:00.720Z,7.53
2017-08-02T20:32:28.142Z,8.10
2017-08-02T20:34:55.556Z,8.40
2017-08-02T20:37:22.980Z,8.23
2017-08-02T20:39:50.409Z,7.97
2017-08-02T20:42:17.847Z,7.97
2017-08-02T20:44:46.064Z,7.33
2017-08-02T20:47:13.496Z,7.90
2017-08-02T20:49:40.912Z,8.77
2017-08-02T20:52:08.339Z,7.80
2017-08-02T20:54:35.763Z,7.83
2017-08-02T20:57:03.200Z,8.80
2017-08-02T20:59:31.390Z,8.77
2017-08-02T21:01:58.830Z,9.40
2017-08-02T21:04:26.243Z,9.70
2017-08-02T21:06:53.676Z,8.97
2017-08-02T21:09:21.087Z,8.90
2017-08-02T21:11:49.300Z,9.63
2017-08-02T21:14:16.749Z,9.27
2017-08-02T21:16:44.219Z,10.40
2017-08-02T21:19:11.659Z,10.77
2017-08-02T21:21:39.092Z,10.13
2017-08-02T21:24:06.511Z,9.53
2017-08-02T21:26:33.936Z,9.23
2017-08-02T21:29:01.363Z,9.03
2017-08-02T21:31:29.556Z,10.17
2017-08-02T21:33:56.983Z,10.40
2017-08-02T21:36:24.412Z,10.57
2017-08-02T21:38:51.855Z,9.87
2017-08-02T21:41:19.280Z,10.97
2017-08-02T21:43:46.710Z,11.00
2017-08-02T21:46:14.908Z,11.00
2017-08-02T21:48:42.335Z,10.53
2017-08-02T21:51:09.752Z,9.70
2017-08-02T21:53:37.192Z,10.50
2017-08-02T21:56:04.639Z,9.77
2017-08-02T21:58:32.071Z,10.27
2017-08-02T22:00:59.499Z,10.73
2017-08-02T22:03:26.932Z,9.23
2017-08-02T22:05:54.380Z,10.03
2017-08-02T22:08:21.932Z,10.10
2017-08-02T22:10:49.364Z,9.60
2017-08-02T22:13:16.792Z,10.63
2017-08-02T22:15:44.223Z,10.10
2017-08-02T22:18:11.655Z,10.63
2017-08-02T22:20:39.092Z,10.10
2017-08-02T22:23:06.688Z,11.00
2017-08-02T22:25:34.131Z,9.93
2017-08-02T22:28:01.551Z,10.63
2017-08-02T22:30:28.993Z,10.07
2017-08-02T22:32:57.192Z,10.37
2017-08-02T22:35:24.624Z,9.57
2017-08-02T22:37:52.051Z,9.57
2017-08-02T22:40:19.475Z,9.97
2017-08-02T22:42:46.935Z,9.93
2017-08-02T22:45:14.405Z,10.00
2017-08-02T22:47:41.819Z,9.90
2017-08-02T22:50:09.252Z,9.10
2017-08-02T22:52:37.447Z,9.70
2017-08-02T22:55:04.859Z,8.93
2017-08-02T22:57:32.287Z,9.67
2017-08-02T22:59:59.713Z,9.67
2017-08-02T23:02:27.139Z,8.97
2017-08-02T23:04:55.331Z,8.53
2017-08-02T23:07:22.768Z,10.07
2017-08-02T23:09:50.183Z,9.50
2017-08-02T23:12:17.611Z,9.67
2017-08-02T23:14:45.043Z,9.40
2017-08-02T23:17:13.223Z,8.17
2017-08-02T23:19:40.642Z,8.30
2017-08-02T23:22:08.088Z,9.80
2017-08-02T23:24:35.515Z,9.20
2017-08-02T23:27:02.931Z,9.37
2017-08-02T23:32:04.920Z,9.00
2017-08-02T23:34:33.111Z,9.53
2017-08-02T23:37:00.539Z,9.97
2017-08-02T23:39:27.979Z,10.17
2017-08-02T23:41:55.403Z,9.70
2017-08-02T23:44:22.955Z,9.90
2017-08-02T23:46:50.384Z,10.13
2017-08-02T23:49:17.811Z,9.87
2017-08-02T23:51:45.231Z,10.77
2017-08-02T23:54:12.663Z,10.37
2017-08-02T23:56:40.083Z,10.03
2017-08-02T23:59:08.287Z,10.00
